Time;durP1;ratioP1;P1;durP2;ratioP2;P2;SDS_P1;SDS_P2;PMS_P1;PMS_P2;Temp;Humidity;BMP_temperature;BMP_pressure;BME280_temperature;BME280_humidity;BME280_pressure;Samples;Min_cycle;Max_cycle;Signal;HPM_P1;HPM_P2
2021/01/11 05:44:42;;;;;;;;;30.40;30.40;;;;;;;;1543025;28;88093;-86
2021/01/11 05:45:29;;;;;;;;;25.25;25.25;;;;;;;;1551172;28;87002;-86
2021/01/11 05:46:27;;;;;;;;;23.60;23.60;;;;;;;;1550489;28;87029;-85
2021/01/11 05:47:12;;;;;;;;;27.60;24.60;;;;;;;;1542931;28;87033;-85
2021/01/11 05:47:59;;;;;;;;;24.50;24.50;;;;;;;;1543239;28;87464;-85
2021/01/11 05:48:55;;;;;;;;;30.80;29.60;;;;;;;;1546550;28;87036;-85
2021/01/11 05:49:40;;;;;;;;;29.40;29.40;;;;;;;;1546538;28;87046;-85
2021/01/11 05:50:26;;;;;;;;;28.25;27.00;;;;;;;;1546590;28;86408;-85
2021/01/11 05:51:22;;;;;;;;;25.80;22.00;;;;;;;;1544293;28;87349;-85
2021/01/11 05:52:16;;;;;;;;;24.40;24.40;;;;;;;;1540311;28;87030;-84
2021/01/11 05:53:01;;;;;;;;;23.80;23.00;;;;;;;;1539979;28;87863;-85
2021/01/11 05:53:47;;;;;;;;;23.00;21.00;;;;;;;;1543651;28;87316;-85
2021/01/11 05:54:32;;;;;;;;;43.00;41.00;;;;;;;;1543586;28;87230;-85
2021/01/11 05:55:24;;;;;;;;;34.50;33.25;;;;;;;;1540947;28;87232;-85
2021/01/11 05:56:10;;;;;;;;;35.80;34.00;;;;;;;;1537065;28;87721;-85
2021/01/11 05:56:56;;;;;;;;;30.00;28.25;;;;;;;;1546305;28;86806;-85
2021/01/11 05:57:44;;;;;;;;;29.00;29.00;;;;;;;;1542552;28;90970;-85
2021/01/11 05:58:30;;;;;;;;;26.20;26.20;;;;;;;;1546203;28;90404;-85
2021/01/11 05:59:15;;;;;;;;;26.50;26.50;;;;;;;;1548860;28;89891;-85
2021/01/11 06:00:00;;;;;;;;;31.00;31.00;;;;;;;;1545425;28;90414;-84
2021/01/11 06:00:45;;;;;;;;;31.25;29.50;;;;;;;;1542219;28;90219;-85
2021/01/11 06:01:31;;;;;;;;;27.50;25.00;;;;;;;;1540795;28;91173;-85
2021/01/11 06:02:17;;;;;;;;;23.20;23.20;;;;;;;;1536252;28;89175;-84
2021/01/11 06:03:03;;;;;;;;;28.75;28.75;;;;;;;;1536200;28;90397;-85
2021/01/11 06:03:48;;;;;;;;;30.60;30.20;;;;;;;;1542426;28;88104;-85
2021/01/11 06:04:34;;;;;;;;;26.50;24.75;;;;;;;;1541786;28;90480;-85
2021/01/11 06:05:19;;;;;;;;;26.75;26.75;;;;;;;;1540161;28;90032;-85
2021/01/11 06:06:05;;;;;;;;;25.00;25.00;;;;;;;;1542348;28;90987;-85
2021/01/11 06:06:52;;;;;;;;;29.20;26.20;;;;;;;;1542445;28;89747;-85
2021/01/11 06:07:38;;;;;;;;;23.80;23.80;;;;;;;;1546285;28;87795;-84
2021/01/11 06:08:23;;;;;;;;;23.75;23.75;;;;;;;;1546129;28;87990;-84
2021/01/11 06:09:08;;;;;;;;;24.50;24.50;;;;;;;;1545924;28;91077;-85
2021/01/11 06:09:54;;;;;;;;;22.00;22.00;;;;;;;;1540204;28;90049;-85
2021/01/11 06:10:40;;;;;;;;;25.75;25.75;;;;;;;;1535799;28;90381;-85
2021/01/11 06:11:26;;;;;;;;;20.40;20.40;;;;;;;;1542138;28;87396;-85
2021/01/11 06:12:12;;;;;;;;;27.40;27.40;;;;;;;;1542188;28;90875;-85
2021/01/11 06:12:58;;;;;;;;;26.00;22.80;;;;;;;;1546258;28;90802;-85
2021/01/11 06:13:46;;;;;;;;;24.25;24.25;;;;;;;;1548010;28;90482;-85
2021/01/11 06:14:34;;;;;;;;;25.00;25.00;;;;;;;;1543532;28;89980;-84
2021/01/11 06:15:26;;;;;;;;;23.80;23.80;;;;;;;;1542829;28;87714;-85
2021/01/11 06:16:12;;;;;;;;;27.20;27.20;;;;;;;;1545913;28;89746;-85
2021/01/11 06:16:57;;;;;;;;;32.00;28.75;;;;;;;;1544152;28;91340;-85
2021/01/11 06:17:43;;;;;;;;;27.50;27.50;;;;;;;;1543862;28;90412;-85
2021/01/11 06:18:28;;;;;;;;;25.20;25.20;;;;;;;;1542812;28;89217;-84
2021/01/11 06:19:13;;;;;;;;;21.25;20.25;;;;;;;;1540011;28;90647;-85
2021/01/11 06:19:59;;;;;;;;;21.25;19.50;;;;;;;;1535831;28;90617;-84
2021/01/11 06:20:45;;;;;;;;;25.00;25.00;;;;;;;;1542106;28;87903;-85
2021/01/11 06:21:30;;;;;;;;;20.80;19.40;;;;;;;;1546459;28;86272;-85
2021/01/11 06:22:17;;;;;;;;;24.00;24.00;;;;;;;;1546113;28;90518;-85
2021/01/11 06:23:02;;;;;;;;;27.40;25.40;;;;;;;;1540147;28;89232;-85
2021/01/11 06:23:48;;;;;;;;;28.00;28.00;;;;;;;;1539811;28;91721;-84
2021/01/11 06:24:35;;;;;;;;;21.80;21.80;;;;;;;;1535687;28;90607;-85
2021/01/11 06:25:21;;;;;;;;;26.40;26.40;;;;;;;;1535881;28;90194;-85
2021/01/11 06:26:25;;;;;;;;;24.75;24.75;;;;;;;;1542105;28;90538;-85
2021/01/11 06:27:16;;;;;;;;;22.80;22.80;;;;;;;;1538339;28;90838;-85
2021/01/11 06:28:03;;;;;;;;;29.00;29.00;;;;;;;;1533757;28;89143;-85
2021/01/11 06:28:48;;;;;;;;;26.20;26.20;;;;;;;;1536848;28;89465;-85
2021/01/11 06:29:34;;;;;;;;;25.50;25.50;;;;;;;;1544384;28;87092;-85
2021/01/11 06:30:39;;;;;;;;;25.50;25.50;;;;;;;;1543964;28;91085;-85
2021/01/11 06:31:29;;;;;;;;;24.40;24.40;;;;;;;;1533410;28;89989;-85
2021/01/11 06:32:18;;;;;;;;;17.60;17.60;;;;;;;;1533604;28;92057;-85
2021/01/11 06:33:06;;;;;;;;;25.40;25.40;;;;;;;;1534033;28;90897;-85
2021/01/11 06:33:52;;;;;;;;;26.60;26.60;;;;;;;;1537687;28;88146;-85
2021/01/11 06:34:37;;;;;;;;;28.75;27.50;;;;;;;;1545984;28;88104;-85
2021/01/11 06:35:29;;;;;;;;;25.00;25.00;;;;;;;;1545310;28;89732;-85
2021/01/11 06:36:18;;;;;;;;;30.00;28.20;;;;;;;;1540080;28;90855;-85
2021/01/11 06:37:15;;;;;;;;;21.00;21.00;;;;;;;;1543491;28;90640;-85
2021/01/11 06:38:07;;;;;;;;;20.80;20.80;;;;;;;;1550467;28;89022;-85
2021/01/11 06:38:52;;;;;;;;;25.00;25.00;;;;;;;;1545921;28;90674;-85
2021/01/11 06:39:38;;;;;;;;;23.40;23.40;;;;;;;;1543085;28;90753;-85
2021/01/11 06:40:23;;;;;;;;;20.25;20.00;;;;;;;;1541658;28;90004;-85
2021/01/11 06:41:09;;;;;;;;;14.00;14.00;;;;;;;;1542600;28;89073;-85
2021/01/11 06:41:54;;;;;;;;;18.75;18.75;;;;;;;;1542116;28;86940;-85
2021/01/11 06:42:39;;;;;;;;;24.00;24.00;;;;;;;;1541827;28;87222;-85
2021/01/11 06:43:26;;;;;;;;;29.00;28.25;;;;;;;;1546118;28;87043;-85
2021/01/11 06:44:14;;;;;;;;;22.20;22.20;;;;;;;;1542935;28;87069;-84
2021/01/11 06:44:59;;;;;;;;;23.00;23.00;;;;;;;;1550786;28;87010;-85
2021/01/11 06:45:45;;;;;;;;;19.25;19.25;;;;;;;;1552417;28;86671;-85
2021/01/11 06:46:30;;;;;;;;;20.75;19.00;;;;;;;;1552200;28;87633;-84
2021/01/11 06:47:26;;;;;;;;;19.25;17.25;;;;;;;;1548104;28;87070;-86
2021/01/11 06:48:20;;;;;;;;;22.80;22.80;;;;;;;;1552214;28;88052;-85
2021/01/11 06:49:08;;;;;;;;;23.80;21.00;;;;;;;;1550563;28;87529;-85
2021/01/11 06:50:02;;;;;;;;;23.80;23.80;;;;;;;;1552283;28;87529;-85
2021/01/11 06:50:49;;;;;;;;;27.00;27.00;;;;;;;;1549523;28;86941;-84
2021/01/11 06:51:41;;;;;;;;;20.00;20.00;;;;;;;;1544000;28;86996;-84
2021/01/11 06:52:33;;;;;;;;;23.80;23.80;;;;;;;;1537652;28;87231;-85
2021/01/11 06:53:29;;;;;;;;;27.40;25.80;;;;;;;;1540058;28;87085;-85
2021/01/11 06:54:19;;;;;;;;;22.80;22.80;;;;;;;;1548496;28;86071;-85
2021/01/11 06:55:11;;;;;;;;;26.20;26.20;;;;;;;;1543095;28;86861;-85
2021/01/11 06:56:06;;;;;;;;;25.60;25.60;;;;;;;;1540794;28;86970;-85
2021/01/11 06:56:51;;;;;;;;;17.20;17.20;;;;;;;;1544284;28;87854;-85
2021/01/11 06:57:37;;;;;;;;;24.25;23.50;;;;;;;;1547481;28;87187;-85
2021/01/11 06:58:23;;;;;;;;;24.50;23.00;;;;;;;;1547174;28;87715;-84
2021/01/11 06:59:11;;;;;;;;;19.80;19.80;;;;;;;;1546521;28;87563;-84
2021/01/11 07:00:05;;;;;;;;;24.80;24.80;;;;;;;;1547151;28;86997;-84
2021/01/11 07:01:00;;;;;;;;;20.80;20.80;;;;;;;;1540997;28;87200;-84
2021/01/11 07:01:46;;;;;;;;;23.00;23.00;;;;;;;;1540989;28;87063;-84
2021/01/11 07:02:39;;;;;;;;;22.60;22.60;;;;;;;;1547281;28;87000;-85
2021/01/11 07:03:40;;;;;;;;;17.40;17.40;;;;;;;;1543855;28;87486;-85
2021/01/11 07:04:35;;;;;;;;;22.00;21.60;;;;;;;;1546054;28;87589;-84
2021/01/11 07:05:39;;;;;;;;;21.60;21.60;;;;;;;;1554968;28;88086;-83
2021/01/11 07:06:36;;;;;;;;;24.80;24.80;;;;;;;;1546513;28;91803;-83
2021/01/11 07:07:24;;;;;;;;;20.60;20.60;;;;;;;;1534845;28;90585;-83
2021/01/11 07:08:15;;;;;;;;;23.00;23.00;;;;;;;;1538756;28;87812;-84
2021/01/11 07:09:11;;;;;;;;;15.00;15.00;;;;;;;;1546352;28;88058;-84
2021/01/11 07:09:59;;;;;;;;;19.00;19.00;;;;;;;;1547457;28;88043;-85
2021/01/11 07:10:45;;;;;;;;;20.60;20.60;;;;;;;;1546997;28;90195;-87
2021/01/11 07:11:49;;;;;;;;;22.50;22.50;;;;;;;;1546976;28;87585;-86
2021/01/11 07:12:35;;;;;;;;;19.00;19.00;;;;;;;;1551544;28;89681;-83
2021/01/11 07:13:20;;;;;;;;;18.50;17.00;;;;;;;;1546862;28;89314;-85
2021/01/11 07:14:06;;;;;;;;;18.75;18.75;;;;;;;;1544886;28;87943;-85
2021/01/11 07:14:55;;;;;;;;;22.25;20.50;;;;;;;;1540871;28;88499;-85
2021/01/11 07:15:40;;;;;;;;;17.40;17.40;;;;;;;;1552977;28;89152;-85
2021/01/11 07:16:38;;;;;;;;;18.25;18.25;;;;;;;;1546999;28;89236;-86
2021/01/11 07:17:47;;;;;;;;;25.60;25.60;;;;;;;;1538841;28;90025;-85
2021/01/11 07:18:38;;;;;;;;;20.40;20.40;;;;;;;;1540389;28;91062;-85
2021/01/11 07:19:44;;;;;;;;;22.40;22.40;;;;;;;;1546769;28;87967;-84
2021/01/11 07:20:39;;;;;;;;;22.60;20.20;;;;;;;;1545946;28;90322;-84
2021/01/11 07:21:25;;;;;;;;;20.20;19.20;;;;;;;;1540804;28;90199;-83
2021/01/11 07:22:11;;;;;;;;;18.80;18.80;;;;;;;;1544394;28;87781;-84
2021/01/11 07:22:56;;;;;;;;;18.00;17.00;;;;;;;;1542625;28;90679;-84
2021/01/11 07:23:41;;;;;;;;;20.00;19.25;;;;;;;;1546620;28;88796;-83
2021/01/11 07:24:27;;;;;;;;;17.50;17.50;;;;;;;;1542590;28;90596;-82
2021/01/11 07:25:17;;;;;;;;;16.50;16.50;;;;;;;;1540734;28;87905;-84
2021/01/11 07:26:02;;;;;;;;;15.20;15.20;;;;;;;;1543360;28;87691;-83
2021/01/11 07:26:48;;;;;;;;;20.50;20.50;;;;;;;;1555707;28;89405;-85
2021/01/11 07:27:33;;;;;;;;;20.50;20.50;;;;;;;;1552865;28;90694;-85
2021/01/11 07:28:18;;;;;;;;;18.50;18.00;;;;;;;;1544833;28;90344;-85
2021/01/11 07:29:17;;;;;;;;;20.00;20.00;;;;;;;;1545365;28;87072;-85
2021/01/11 07:30:02;;;;;;;;;18.40;16.40;;;;;;;;1541036;28;90759;-86
2021/01/11 07:30:47;;;;;;;;;16.00;15.25;;;;;;;;1540715;28;87985;-85
2021/01/11 07:31:42;;;;;;;;;18.75;18.75;;;;;;;;1540724;28;90889;-85
2021/01/11 07:32:30;;;;;;;;;19.20;18.80;;;;;;;;1534582;28;90074;-85
2021/01/11 07:33:15;;;;;;;;;16.80;16.80;;;;;;;;1538174;28;87770;-85
2021/01/11 07:34:10;;;;;;;;;15.00;14.75;;;;;;;;1540655;28;88817;-85
2021/01/11 07:34:59;;;;;;;;;17.80;17.80;;;;;;;;1540737;28;89232;-86
2021/01/11 07:35:44;;;;;;;;;16.00;16.00;;;;;;;;1540715;28;89393;-85
2021/01/11 07:36:33;;;;;;;;;21.00;19.25;;;;;;;;1543852;28;87399;-85
2021/01/11 07:37:18;;;;;;;;;17.60;17.60;;;;;;;;1547083;28;88024;-85
2021/01/11 07:38:03;;;;;;;;;19.25;19.25;;;;;;;;1546795;28;90825;-84
2021/01/11 07:38:49;;;;;;;;;20.25;20.25;;;;;;;;1540502;28;91294;-86
2021/01/11 07:39:34;;;;;;;;;18.00;18.00;;;;;;;;1542206;28;90877;-86
2021/01/11 07:40:21;;;;;;;;;25.00;21.75;;;;;;;;1540334;28;89741;-86
2021/01/11 07:41:06;;;;;;;;;16.40;16.40;;;;;;;;1543117;28;87905;-85
2021/01/11 07:41:59;;;;;;;;;20.25;20.25;;;;;;;;1549214;28;91005;-85
2021/01/11 07:42:48;;;;;;;;;20.00;20.00;;;;;;;;1553068;28;88196;-86
2021/01/11 07:43:34;;;;;;;;;22.60;22.60;;;;;;;;1546647;28;90999;-85
2021/01/11 07:44:23;;;;;;;;;19.00;19.00;;;;;;;;1546708;28;88858;-86
2021/01/11 07:45:10;;;;;;;;;21.20;21.20;;;;;;;;1546918;28;91226;-85
2021/01/11 07:46:04;;;;;;;;;23.80;23.80;;;;;;;;1545721;28;90963;-85
2021/01/11 07:47:04;;;;;;;;;19.60;18.40;;;;;;;;1543801;28;91866;-86
2021/01/11 07:47:51;;;;;;;;;20.40;20.40;;;;;;;;1552105;28;87935;-86
2021/01/11 07:48:36;;;;;;;;;21.20;21.20;;;;;;;;1551036;28;90321;-85
2021/01/11 07:49:22;;;;;;;;;20.50;20.50;;;;;;;;1553004;28;88121;-85
2021/01/11 07:50:08;;;;;;;;;17.00;17.00;;;;;;;;1549078;28;89934;-86
2021/01/11 07:51:05;;;;;;;;;19.00;19.00;;;;;;;;1546760;28;90701;-86
2021/01/11 07:51:51;;;;;;;;;18.00;18.00;;;;;;;;1544438;28;90266;-85
2021/01/11 07:52:36;;;;;;;;;10.00;10.00;;;;;;;;1553676;28;90029;-85
2021/01/11 07:53:23;;;;;;;;;13.50;13.50;;;;;;;;1544736;28;87427;-84
2021/01/11 07:54:09;;;;;;;;;15.40;15.40;;;;;;;;1542999;28;87090;-85
2021/01/11 07:54:58;;;;;;;;;19.60;18.20;;;;;;;;1548800;28;88011;-85
2021/01/11 07:55:44;;;;;;;;;20.60;18.60;;;;;;;;1547015;28;87014;-85
2021/01/11 07:56:29;;;;;;;;;15.00;15.00;;;;;;;;1540515;28;87048;-85
2021/01/11 07:57:15;;;;;;;;;18.25;18.25;;;;;;;;1543129;28;87116;-85
2021/01/11 07:58:03;;;;;;;;;13.25;13.25;;;;;;;;1547184;28;87185;-85
2021/01/11 07:58:51;;;;;;;;;15.60;15.60;;;;;;;;1547426;28;87095;-85
2021/01/11 07:59:36;;;;;;;;;25.40;25.40;;;;;;;;1546945;28;86905;-85
2021/01/11 08:00:22;;;;;;;;;19.75;19.75;;;;;;;;1547190;28;86135;-85
2021/01/11 08:01:08;;;;;;;;;23.00;22.00;;;;;;;;1549094;28;86885;-84
2021/01/11 08:01:53;;;;;;;;;18.60;18.60;;;;;;;;1546962;28;87036;-85
2021/01/11 08:02:39;;;;;;;;;22.50;22.50;;;;;;;;1540661;28;88022;-85
2021/01/11 08:03:24;;;;;;;;;15.50;15.50;;;;;;;;1542928;28;87027;-85
2021/01/11 08:04:13;;;;;;;;;16.75;16.75;;;;;;;;1549030;28;87112;-85
2021/01/11 08:04:59;;;;;;;;;19.80;19.80;;;;;;;;1544359;28;87712;-85
2021/01/11 08:05:44;;;;;;;;;19.00;18.00;;;;;;;;1540838;28;87044;-85
2021/01/11 08:06:42;;;;;;;;;16.50;16.50;;;;;;;;1542678;28;86933;-85
2021/01/11 08:07:33;;;;;;;;;20.80;20.80;;;;;;;;1544518;28;86973;-85
2021/01/11 08:08:20;;;;;;;;;16.40;16.40;;;;;;;;1546723;28;87322;-85
2021/01/11 08:09:05;;;;;;;;;19.20;19.20;;;;;;;;1543258;28;87376;-85
2021/01/11 08:09:51;;;;;;;;;12.50;12.50;;;;;;;;1540822;28;87253;-85
2021/01/11 08:10:36;;;;;;;;;18.00;18.00;;;;;;;;1540598;28;88461;-86
2021/01/11 08:11:21;;;;;;;;;21.50;20.50;;;;;;;;1536791;28;86937;-85
2021/01/11 08:12:07;;;;;;;;;17.00;17.00;;;;;;;;1536889;28;87089;-86
2021/01/11 08:12:52;;;;;;;;;20.75;20.75;;;;;;;;1536445;28;87724;-85
2021/01/11 08:13:37;;;;;;;;;22.75;22.75;;;;;;;;1536646;28;87184;-85
2021/01/11 08:14:28;;;;;;;;;22.75;22.75;;;;;;;;1539546;28;87063;-85
2021/01/11 08:15:13;;;;;;;;;20.00;20.00;;;;;;;;1544380;28;90566;-86
2021/01/11 08:16:12;;;;;;;;;15.00;15.00;;;;;;;;1548197;28;90497;-85
2021/01/11 08:16:57;;;;;;;;;15.80;15.60;;;;;;;;1550568;28;89034;-84
2021/01/11 08:17:42;;;;;;;;;23.00;23.00;;;;;;;;1542972;28;90809;-85
2021/01/11 08:18:27;;;;;;;;;29.00;29.00;;;;;;;;1536321;28;89354;-85
2021/01/11 08:19:13;;;;;;;;;21.75;21.75;;;;;;;;1536683;28;91298;-85
2021/01/11 08:19:59;;;;;;;;;24.50;24.50;;;;;;;;1536575;28;89155;-86
2021/01/11 08:20:44;;;;;;;;;22.40;22.40;;;;;;;;1542703;28;90503;-85
2021/01/11 08:21:29;;;;;;;;;20.00;20.00;;;;;;;;1540667;28;91077;-85
2021/01/11 08:22:16;;;;;;;;;12.00;12.00;;;;;;;;1542743;28;90815;-85
2021/01/11 08:23:11;;;;;;;;;19.20;19.20;;;;;;;;1546711;28;88196;-85
2021/01/11 08:23:59;;;;;;;;;27.80;27.80;;;;;;;;1544073;28;90352;-85
2021/01/11 08:24:48;;;;;;;;;26.40;26.40;;;;;;;;1546875;28;89795;-85
2021/01/11 08:25:34;;;;;;;;;24.00;24.00;;;;;;;;1549652;28;90423;-85
2021/01/11 08:26:20;;;;;;;;;21.80;21.80;;;;;;;;1544163;28;90463;-85
2021/01/11 08:27:18;;;;;;;;;15.00;13.00;;;;;;;;1546658;28;91161;-86
2021/01/11 08:28:04;;;;;;;;;14.80;14.40;;;;;;;;1550618;28;87662;-85
2021/01/11 08:28:52;;;;;;;;;18.25;17.50;;;;;;;;1546614;28;90763;-85
2021/01/11 08:29:38;;;;;;;;;20.00;20.00;;;;;;;;1546650;28;90579;-85
2021/01/11 08:30:24;;;;;;;;;25.20;24.00;;;;;;;;1549420;28;90443;-85
2021/01/11 08:31:11;;;;;;;;;28.25;28.25;;;;;;;;1550862;28;87952;-86
2021/01/11 08:31:58;;;;;;;;;24.80;24.80;;;;;;;;1542886;28;91568;-86
2021/01/11 08:32:44;;;;;;;;;27.80;27.80;;;;;;;;1546827;28;87108;-85
2021/01/11 08:33:30;;;;;;;;;29.50;29.50;;;;;;;;1546832;28;87666;-86
2021/01/11 08:34:15;;;;;;;;;26.80;25.60;;;;;;;;1546658;28;89722;-85
2021/01/11 08:35:28;;;;;;;;;26.50;25.75;;;;;;;;1546839;28;91125;-87
2021/01/11 08:36:14;;;;;;;;;28.80;28.80;;;;;;;;1544954;28;91007;-86
2021/01/11 08:36:59;;;;;;;;;31.50;31.50;;;;;;;;1540413;28;90668;-85
2021/01/11 08:37:45;;;;;;;;;30.50;29.75;;;;;;;;1538997;28;89453;-85
2021/01/11 08:38:30;;;;;;;;;30.00;30.00;;;;;;;;1541967;28;89862;-84
2021/01/11 08:39:16;;;;;;;;;25.00;25.00;;;;;;;;1546978;28;87698;-84
2021/01/11 08:40:01;;;;;;;;;22.50;22.50;;;;;;;;1546886;28;89961;-86
2021/01/11 08:40:49;;;;;;;;;24.00;24.00;;;;;;;;1540543;28;90315;-86
2021/01/11 08:41:36;;;;;;;;;16.80;15.40;;;;;;;;1544357;28;90230;-84
2021/01/11 08:42:22;;;;;;;;;22.80;22.80;;;;;;;;1549553;28;91995;-84
2021/01/11 08:43:19;;;;;;;;;21.80;21.80;;;;;;;;1544191;28;90284;-85
2021/01/11 08:44:05;;;;;;;;;20.60;20.60;;;;;;;;1543818;28;87761;-84
2021/01/11 08:44:50;;;;;;;;;24.25;24.25;;;;;;;;1546869;28;88878;-84
2021/01/11 08:45:36;;;;;;;;;23.00;23.00;;;;;;;;1547761;28;90716;-84
2021/01/11 08:46:22;;;;;;;;;17.40;17.40;;;;;;;;1551707;28;91033;-84
2021/01/11 08:47:08;;;;;;;;;17.50;17.50;;;;;;;;1540763;28;90320;-84
2021/01/11 08:48:04;;;;;;;;;23.80;23.80;;;;;;;;1538530;28;89793;-84
2021/01/11 08:48:49;;;;;;;;;19.60;19.60;;;;;;;;1544069;28;90513;-84
2021/01/11 08:49:57;;;;;;;;;18.75;18.75;;;;;;;;1546794;28;86975;-84
2021/01/11 08:50:43;;;;;;;;;16.40;16.40;;;;;;;;1535186;28;89012;-85
2021/01/11 08:51:29;;;;;;;;;18.40;18.40;;;;;;;;1541131;28;88069;-85
2021/01/11 08:52:14;;;;;;;;;21.00;21.00;;;;;;;;1541260;28;86829;-84
2021/01/11 08:52:59;;;;;;;;;25.25;23.75;;;;;;;;1540270;28;90193;-85
2021/01/11 08:53:44;;;;;;;;;22.25;22.25;;;;;;;;1540656;28;87931;-85
2021/01/11 08:54:30;;;;;;;;;21.00;21.00;;;;;;;;1542567;28;90975;-83
2021/01/11 08:55:18;;;;;;;;;23.80;23.80;;;;;;;;1540567;28;90598;-84
2021/01/11 08:56:06;;;;;;;;;23.40;23.40;;;;;;;;1538243;28;89928;-84
2021/01/11 08:56:52;;;;;;;;;21.80;21.80;;;;;;;;1537060;28;87619;-84
2021/01/11 08:57:38;;;;;;;;;15.60;15.20;;;;;;;;1545148;28;87763;-84
2021/01/11 08:58:23;;;;;;;;;20.50;20.50;;;;;;;;1552342;28;90478;-84
2021/01/11 08:59:08;;;;;;;;;15.00;15.00;;;;;;;;1546384;28;90800;-84
2021/01/11 08:59:54;;;;;;;;;16.00;16.00;;;;;;;;1543128;28;90545;-87
2021/01/11 09:00:39;;;;;;;;;16.00;15.75;;;;;;;;1536305;28;87042;-85
2021/01/11 09:01:27;;;;;;;;;15.75;15.75;;;;;;;;1536619;28;87160;-86
2021/01/11 09:02:28;;;;;;;;;20.20;20.20;;;;;;;;1540570;28;86980;-86
2021/01/11 09:03:13;;;;;;;;;18.80;18.80;;;;;;;;1533325;28;86891;-86
2021/01/11 09:03:58;;;;;;;;;20.75;20.75;;;;;;;;1539149;28;86981;-85
2021/01/11 09:04:44;;;;;;;;;21.25;21.00;;;;;;;;1537466;28;87022;-87
2021/01/11 09:05:30;;;;;;;;;22.00;21.00;;;;;;;;1536796;28;87033;-85
2021/01/11 09:06:33;;;;;;;;;16.40;16.40;;;;;;;;1536750;28;87977;-84
2021/01/11 09:07:25;;;;;;;;;16.80;16.80;;;;;;;;1539345;28;86863;-85
2021/01/11 09:08:15;;;;;;;;;15.00;15.00;;;;;;;;1540126;28;87082;-86
2021/01/11 09:09:07;;;;;;;;;18.80;18.80;;;;;;;;1545512;28;87088;-85
2021/01/11 09:09:53;;;;;;;;;15.00;15.00;;;;;;;;1551165;28;87065;-86
2021/01/11 09:10:42;;;;;;;;;20.50;20.50;;;;;;;;1548255;28;87053;-86
2021/01/11 09:11:27;;;;;;;;;24.00;24.00;;;;;;;;1547735;28;87177;-86
2021/01/11 09:12:12;;;;;;;;;16.25;16.25;;;;;;;;1549447;28;87404;-86
2021/01/11 09:13:16;;;;;;;;;18.00;18.00;;;;;;;;1544733;28;87060;-87
2021/01/11 09:14:15;;;;;;;;;15.20;15.20;;;;;;;;1539016;28;87263;-87
2021/01/11 09:15:00;;;;;;;;;18.40;18.40;;;;;;;;1545216;28;87859;-86
2021/01/11 09:15:46;;;;;;;;;18.25;18.25;;;;;;;;1546948;28;87020;-86
2021/01/11 09:16:31;;;;;;;;;16.25;16.25;;;;;;;;1540758;28;87015;-86
2021/01/11 09:17:24;;;;;;;;;16.50;16.50;;;;;;;;1541075;28;86893;-86
2021/01/11 09:18:10;;;;;;;;;20.40;20.40;;;;;;;;1540539;28;87069;-86
2021/01/11 09:19:03;;;;;;;;;19.60;19.60;;;;;;;;1533991;28;87011;-86
2021/01/11 09:19:48;;;;;;;;;15.20;15.20;;;;;;;;1531834;28;86904;-87
2021/01/11 09:20:34;;;;;;;;;13.25;13.25;;;;;;;;1537872;28;87032;-86
2021/01/11 09:21:23;;;;;;;;;17.00;17.00;;;;;;;;1536840;28;87081;-86
2021/01/11 09:22:15;;;;;;;;;16.80;15.80;;;;;;;;1537859;28;87361;-86
2021/01/11 09:23:00;;;;;;;;;14.40;14.40;;;;;;;;1544193;28;87790;-87
2021/01/11 09:23:45;;;;;;;;;18.25;18.25;;;;;;;;1543864;28;87229;-87
2021/01/11 09:24:30;;;;;;;;;19.50;19.50;;;;;;;;1541082;28;89604;-87
2021/01/11 09:25:16;;;;;;;;;24.75;24.25;;;;;;;;1536646;28;89371;-87
2021/01/11 09:26:01;;;;;;;;;18.75;18.75;;;;;;;;1536560;28;90019;-87
2021/01/11 09:26:46;;;;;;;;;17.50;17.25;;;;;;;;1536392;28;90469;-87
2021/01/11 09:27:31;;;;;;;;;12.75;12.75;;;;;;;;1542959;28;90108;-87
2021/01/11 09:28:17;;;;;;;;;18.00;16.75;;;;;;;;1542847;28;90416;-87
2021/01/11 09:29:03;;;;;;;;;22.00;22.00;;;;;;;;1540982;28;88337;-87
2021/01/11 09:29:49;;;;;;;;;19.25;19.25;;;;;;;;1540679;28;90255;-87
2021/01/11 09:30:35;;;;;;;;;21.00;21.00;;;;;;;;1537864;28;90170;-87
2021/01/11 09:31:21;;;;;;;;;17.80;17.80;;;;;;;;1543080;28;91067;-87
2021/01/11 09:32:06;;;;;;;;;21.25;21.25;;;;;;;;1540828;28;90084;-86
2021/01/11 09:32:51;;;;;;;;;13.00;13.00;;;;;;;;1536450;28;89490;-87
2021/01/11 09:33:36;;;;;;;;;15.25;14.75;;;;;;;;1542851;28;89977;-87
2021/01/11 09:34:22;;;;;;;;;12.00;12.00;;;;;;;;1542566;28;90677;-86
2021/01/11 09:35:07;;;;;;;;;22.75;20.50;;;;;;;;1544880;28;90350;-87
2021/01/11 09:35:52;;;;;;;;;19.00;17.75;;;;;;;;1540896;28;90280;-89
2021/01/11 09:36:38;;;;;;;;;18.25;17.25;;;;;;;;1536353;28;88258;-88
2021/01/11 09:37:23;;;;;;;;;24.75;24.75;;;;;;;;1536826;28;90566;-88
2021/01/11 09:38:09;;;;;;;;;15.50;15.50;;;;;;;;1542580;28;90280;-88
2021/01/11 09:38:54;;;;;;;;;17.25;17.25;;;;;;;;1540788;28;91186;-88
2021/01/11 09:39:39;;;;;;;;;17.75;17.75;;;;;;;;1535674;28;88923;-88
2021/01/11 09:40:25;;;;;;;;;18.00;18.00;;;;;;;;1536844;28;87678;-89
2021/01/11 09:41:12;;;;;;;;;16.75;16.75;;;;;;;;1545071;28;87576;-89
2021/01/11 09:41:57;;;;;;;;;14.20;14.20;;;;;;;;1546910;28;89897;-89
2021/01/11 09:42:45;;;;;;;;;16.25;16.25;;;;;;;;1546682;28;89326;-89
2021/01/11 09:43:30;;;;;;;;;16.00;16.00;;;;;;;;1549419;28;89674;-88
2021/01/11 09:44:16;;;;;;;;;17.50;17.50;;;;;;;;1543987;28;89418;-88
2021/01/11 09:45:01;;;;;;;;;14.20;14.20;;;;;;;;1539171;28;90530;-89
2021/01/11 09:45:46;;;;;;;;;17.75;17.75;;;;;;;;1545036;28;91551;-89
2021/01/11 09:46:38;;;;;;;;;29.25;26.25;;;;;;;;1548765;28;90655;-89
2021/01/11 09:47:23;;;;;;;;;19.20;19.20;;;;;;;;1546983;28;90864;-89
2021/01/11 09:48:09;;;;;;;;;16.75;16.75;;;;;;;;1543986;28;89438;-89
2021/01/11 09:48:54;;;;;;;;;24.25;23.75;;;;;;;;1543036;28;88867;-89
2021/01/11 09:49:39;;;;;;;;;21.25;21.25;;;;;;;;1546959;28;90811;-88
2021/01/11 09:50:24;;;;;;;;;21.50;19.50;;;;;;;;1550875;28;88219;-89
2021/01/11 09:51:09;;;;;;;;;20.25;20.25;;;;;;;;1550943;28;89326;-89
2021/01/11 09:51:55;;;;;;;;;18.00;18.00;;;;;;;;1556045;28;90635;-89
2021/01/11 09:52:40;;;;;;;;;18.25;18.25;;;;;;;;1556771;28;89209;-88
2021/01/11 09:53:25;;;;;;;;;24.50;24.50;;;;;;;;1547026;28;91297;-88
2021/01/11 09:54:10;;;;;;;;;26.50;26.50;;;;;;;;1538997;28;89282;-88
2021/01/11 09:54:56;;;;;;;;;22.00;22.00;;;;;;;;1538960;28;90396;-88
2021/01/11 09:55:41;;;;;;;;;18.00;18.00;;;;;;;;1543267;28;88885;-88
2021/01/11 09:56:26;;;;;;;;;18.25;18.25;;;;;;;;1549448;28;89133;-87
2021/01/11 09:57:11;;;;;;;;;19.25;19.25;;;;;;;;1550966;28;89584;-88
2021/01/11 09:57:57;;;;;;;;;22.50;21.25;;;;;;;;1548331;28;89687;-88
2021/01/11 09:58:42;;;;;;;;;20.25;20.25;;;;;;;;1551374;28;87503;-87
2021/01/11 09:59:27;;;;;;;;;19.50;19.50;;;;;;;;1557120;28;89034;-88
2021/01/11 10:00:14;;;;;;;;;25.75;24.25;;;;;;;;1554297;28;88910;-87
2021/01/11 10:00:59;;;;;;;;;32.00;28.20;;;;;;;;1544378;28;90291;-89
2021/01/11 10:01:48;;;;;;;;;25.50;25.50;;;;;;;;1549050;28;90798;-89
2021/01/11 10:02:33;;;;;;;;;26.60;24.00;;;;;;;;1547636;28;89159;-88
2021/01/11 10:03:21;;;;;;;;;26.50;26.00;;;;;;;;1544919;28;89042;-89
2021/01/11 10:04:07;;;;;;;;;18.60;18.00;;;;;;;;1542957;28;89239;-88
2021/01/11 10:04:52;;;;;;;;;17.60;17.60;;;;;;;;1540749;28;90252;-89
2021/01/11 10:05:38;;;;;;;;;25.50;25.50;;;;;;;;1536386;28;90303;-89
2021/01/11 10:06:23;;;;;;;;;28.25;28.00;;;;;;;;1545876;28;88138;-90
2021/01/11 10:07:08;;;;;;;;;23.50;22.00;;;;;;;;1542453;28;87104;-90
2021/01/11 10:07:53;;;;;;;;;33.00;32.00;;;;;;;;1542286;28;87324;-90
2021/01/11 10:08:39;;;;;;;;;31.25;31.25;;;;;;;;1537156;28;87885;-88
2021/01/11 10:09:25;;;;;;;;;28.50;28.50;;;;;;;;1542725;28;87030;-89
2021/01/11 10:10:13;;;;;;;;;29.60;29.60;;;;;;;;1546685;28;87123;-90
2021/01/11 10:10:58;;;;;;;;;25.00;25.00;;;;;;;;1549436;28;87140;-89
2021/01/11 10:11:47;;;;;;;;;29.25;29.25;;;;;;;;1550557;28;87454;-88
2021/01/11 10:12:32;;;;;;;;;24.00;23.00;;;;;;;;1543202;28;87261;-89
2021/01/11 10:13:18;;;;;;;;;18.25;18.25;;;;;;;;1546607;28;87153;-88
2021/01/11 10:14:04;;;;;;;;;26.00;26.00;;;;;;;;1548601;28;86729;-89
2021/01/11 10:14:49;;;;;;;;;29.75;27.50;;;;;;;;1544228;28;87778;-88
2021/01/11 10:15:34;;;;;;;;;19.25;19.25;;;;;;;;1536258;28;86990;-88
2021/01/11 10:16:19;;;;;;;;;21.25;21.25;;;;;;;;1547623;28;88130;-88
2021/01/11 10:17:04;;;;;;;;;19.75;19.75;;;;;;;;1540320;28;87012;-88
2021/01/11 10:17:50;;;;;;;;;25.25;25.25;;;;;;;;1540683;28;87000;-88
2021/01/11 10:18:35;;;;;;;;;21.50;21.50;;;;;;;;1544117;28;87023;-88
2021/01/11 10:19:21;;;;;;;;;23.50;23.50;;;;;;;;1540215;28;87351;-88
2021/01/11 10:20:07;;;;;;;;;32.20;27.80;;;;;;;;1536333;28;86863;-89
2021/01/11 10:20:53;;;;;;;;;25.80;25.80;;;;;;;;1542142;28;87195;-88
2021/01/11 10:21:38;;;;;;;;;32.00;32.00;;;;;;;;1548709;28;86539;-88
2021/01/11 10:22:23;;;;;;;;;35.50;32.75;;;;;;;;1546541;28;87364;-89